createdAt,value
2018-12-24T00:00:30.054Z,11.02
2018-12-24T00:02:56.139Z,11.04
2018-12-24T00:05:22.119Z,11.06
2018-12-24T00:07:48.202Z,11.10
2018-12-24T00:10:14.476Z,11.13
2018-12-24T00:12:43.262Z,11.16
2018-12-24T00:15:09.547Z,11.15
2018-12-24T00:17:35.535Z,11.08
2018-12-24T00:20:01.954Z,11.14
2018-12-24T00:22:27.904Z,11.17
2018-12-24T00:24:53.897Z,11.19
2018-12-24T00:27:19.875Z,11.18
2018-12-24T00:29:46.120Z,11.16
2018-12-24T00:32:15.109Z,11.13
2018-12-24T00:34:41.570Z,11.12
2018-12-24T00:37:07.536Z,11.12
2018-12-24T00:39:33.503Z,11.08
2018-12-24T00:41:59.517Z,11.07
2018-12-24T00:44:25.747Z,11.03
2018-12-24T00:46:51.695Z,11.02
2018-12-24T00:49:20.697Z,10.99
2018-12-24T00:51:46.663Z,11.00
2018-12-24T00:54:15.406Z,10.90
2018-12-24T00:56:41.375Z,11.01
2018-12-24T00:59:10.850Z,11.03
2018-12-24T01:01:36.802Z,11.02
2018-12-24T01:04:06.300Z,11.04
2018-12-24T01:06:32.280Z,11.06
2018-12-24T01:08:58.257Z,11.05
2018-12-24T01:11:24.245Z,11.03
2018-12-24T01:13:50.518Z,11.03
2018-12-24T01:16:17.231Z,11.05
2018-12-24T01:18:43.483Z,11.05
2018-12-24T01:21:12.576Z,11.05
2018-12-24T01:23:38.511Z,11.03
2018-12-24T01:26:10.457Z,11.05
2018-12-24T01:28:36.710Z,9.67
2018-12-24T01:31:02.969Z,11.06
2018-12-24T01:33:28.915Z,11.06
2018-12-24T01:35:55.199Z,11.07
2018-12-24T01:38:21.162Z,10.98
2018-12-24T01:40:50.168Z,11.06
2018-12-24T01:43:16.156Z,11.04
2018-12-24T01:45:45.129Z,11.05
2018-12-24T01:48:11.164Z,11.04
2018-12-24T01:50:37.500Z,11.05
2018-12-24T01:53:03.459Z,11.05
2018-12-24T01:55:29.418Z,11.06
2018-12-24T01:57:56.121Z,11.04
2018-12-24T02:00:22.498Z,11.08
2018-12-24T02:02:51.596Z,11.08
2018-12-24T02:05:17.552Z,11.06
2018-12-24T02:07:44.833Z,11.07
2018-12-24T02:10:10.915Z,11.04
2018-12-24T02:12:42.347Z,11.06
2018-12-24T02:15:11.220Z,11.05
2018-12-24T02:17:37.477Z,11.09
2018-12-24T02:20:04.427Z,11.05
2018-12-24T02:22:30.378Z,10.73
2018-12-24T02:24:56.798Z,9.77
2018-12-24T02:27:22.785Z,9.06
2018-12-24T02:29:48.767Z,8.77
2018-12-24T02:32:14.720Z,8.59
2018-12-24T02:34:40.929Z,8.56
2018-12-24T02:37:06.900Z,8.53
2018-12-24T02:39:36.810Z,8.43
2018-12-24T02:42:02.873Z,8.43
2018-12-24T02:44:30.443Z,8.48
2018-12-24T02:46:57.243Z,8.52
2018-12-24T02:49:26.336Z,8.53
2018-12-24T02:51:52.442Z,8.48
2018-12-24T02:54:21.821Z,8.35
2018-12-24T02:56:47.806Z,8.12
2018-12-24T02:59:17.042Z,8.05
2018-12-24T03:01:42.981Z,8.06
2018-12-24T03:04:08.975Z,7.93
2018-12-24T03:06:35.142Z,7.75
2018-12-24T03:09:01.450Z,7.81
2018-12-24T03:11:27.445Z,7.71
2018-12-24T03:13:53.385Z,7.69
2018-12-24T03:16:20.792Z,7.68
2018-12-24T03:18:47.459Z,7.62
2018-12-24T03:21:16.735Z,7.58
2018-12-24T03:23:42.752Z,7.53
2018-12-24T03:26:11.776Z,7.52
2018-12-24T03:28:37.754Z,7.51
2018-12-24T03:31:06.917Z,7.34
2018-12-24T03:33:32.899Z,7.21
2018-12-24T03:36:02.079Z,7.21
2018-12-24T03:38:28.230Z,7.13
2018-12-24T03:40:54.186Z,7.10
2018-12-24T03:43:20.170Z,6.99
2018-12-24T03:45:46.130Z,6.99
2018-12-24T03:48:12.308Z,6.99
2018-12-24T03:50:38.328Z,6.94
2018-12-24T03:53:07.619Z,6.85
2018-12-24T03:55:33.571Z,6.80
2018-12-24T03:58:00.670Z,6.81
2018-12-24T04:00:26.968Z,6.76
2018-12-24T04:02:55.976Z,6.63
2018-12-24T04:05:22.231Z,6.62
2018-12-24T04:07:52.265Z,6.53
2018-12-24T04:10:18.245Z,6.58
2018-12-24T04:12:47.036Z,6.58
2018-12-24T04:15:13.112Z,6.49
2018-12-24T04:17:39.062Z,6.51
2018-12-24T04:20:05.017Z,6.53
2018-12-24T04:22:31.265Z,6.59
2018-12-24T04:24:57.229Z,6.57
2018-12-24T04:27:23.469Z,6.50
2018-12-24T04:29:51.402Z,6.33
2018-12-24T04:32:17.364Z,6.32
2018-12-24T04:34:47.861Z,6.10
2018-12-24T04:37:13.857Z,6.05
2018-12-24T04:39:42.893Z,6.07
2018-12-24T04:42:08.830Z,6.07
2018-12-24T04:44:37.985Z,5.96
2018-12-24T04:47:03.929Z,4.34
2018-12-24T04:49:30.300Z,5.90
2018-12-24T04:51:56.530Z,5.85
2018-12-24T04:54:22.518Z,5.84
2018-12-24T04:56:48.459Z,5.89
2018-12-24T04:59:14.544Z,5.95
2018-12-24T05:01:44.158Z,5.97
2018-12-24T05:04:10.239Z,5.99
2018-12-24T05:06:39.204Z,5.87
2018-12-24T05:09:05.435Z,5.86
2018-12-24T05:11:34.551Z,5.83
2018-12-24T05:14:00.520Z,5.91
2018-12-24T05:16:26.751Z,5.92
2018-12-24T05:18:53.041Z,5.87
2018-12-24T05:21:22.005Z,5.89
2018-12-24T05:23:47.962Z,5.89
2018-12-24T05:26:15.957Z,5.88
2018-12-24T05:28:41.886Z,5.94
2018-12-24T05:31:07.866Z,5.93
2018-12-24T05:33:33.849Z,5.86
2018-12-24T05:35:59.906Z,5.83
2018-12-24T05:38:28.619Z,5.82
2018-12-24T05:40:54.596Z,5.78
2018-12-24T05:43:24.413Z,5.81
2018-12-24T05:45:50.379Z,5.76
2018-12-24T05:48:19.559Z,5.71
2018-12-24T05:50:45.502Z,5.69
2018-12-24T05:53:11.852Z,5.66
2018-12-24T05:55:38.114Z,5.64
2018-12-24T05:58:06.938Z,5.65
2018-12-24T06:00:33.223Z,5.70
2018-12-24T06:03:02.231Z,5.59
2018-12-24T06:05:28.199Z,5.66
2018-12-24T06:07:54.470Z,5.63
2018-12-24T06:10:20.513Z,5.64
2018-12-24T06:12:46.482Z,5.62
2018-12-24T06:15:12.585Z,5.60
2018-12-24T06:17:38.818Z,5.58
2018-12-24T06:20:07.791Z,5.62
2018-12-24T06:22:33.737Z,5.68
2018-12-24T06:25:02.073Z,5.56
2018-12-24T06:27:28.319Z,5.68
2018-12-24T06:29:57.517Z,5.61
2018-12-24T06:32:23.583Z,5.59
2018-12-24T06:34:53.005Z,5.55
2018-12-24T06:37:19.227Z,5.46
2018-12-24T06:39:48.224Z,5.48
2018-12-24T06:42:14.425Z,5.46
2018-12-24T06:44:40.385Z,5.44
2018-12-24T06:47:06.380Z,5.42
2018-12-24T06:49:32.691Z,5.44
2018-12-24T06:51:58.776Z,5.44
2018-12-24T06:54:24.724Z,5.44
2018-12-24T06:56:53.916Z,5.49
2018-12-24T06:59:20.655Z,5.50
2018-12-24T07:01:50.709Z,5.47
2018-12-24T07:04:16.978Z,5.58
2018-12-24T07:06:43.243Z,5.60
2018-12-24T07:09:09.183Z,5.54
2018-12-24T07:11:38.494Z,5.54
2018-12-24T07:14:04.774Z,5.50
2018-12-24T07:16:33.951Z,5.45
2018-12-24T07:18:59.951Z,5.32
2018-12-24T07:21:26.090Z,5.26
2018-12-24T07:23:52.048Z,5.37
2018-12-24T07:26:18.318Z,5.38
2018-12-24T07:28:44.570Z,5.32
2018-12-24T07:31:10.543Z,5.37
2018-12-24T07:33:39.295Z,5.49
2018-12-24T07:36:05.301Z,5.50
2018-12-24T07:38:34.024Z,5.60
2018-12-24T07:41:00.288Z,5.59
2018-12-24T07:43:27.969Z,5.50
2018-12-24T07:45:53.915Z,5.53
2018-12-24T07:48:22.218Z,5.53
2018-12-24T07:50:48.186Z,5.46
2018-12-24T07:53:17.425Z,5.53
2018-12-24T07:55:43.381Z,5.62
2018-12-24T07:58:09.946Z,5.72
2018-12-24T08:00:35.922Z,5.77
2018-12-24T08:03:01.911Z,5.52
2018-12-24T08:05:30.788Z,5.73
2018-12-24T08:07:58.698Z,5.73
2018-12-24T08:10:24.770Z,5.61
2018-12-24T08:12:50.740Z,5.72
2018-12-24T08:15:18.328Z,5.81
2018-12-24T08:17:44.256Z,5.85
2018-12-24T08:20:13.262Z,5.95
2018-12-24T08:22:39.480Z,5.94
2018-12-24T08:25:08.511Z,6.04
2018-12-24T08:27:34.481Z,5.42
2018-12-24T08:30:04.052Z,6.01
2018-12-24T08:32:30.005Z,6.08
2018-12-24T08:35:01.369Z,6.02
2018-12-24T08:37:27.245Z,6.04
2018-12-24T08:39:53.241Z,6.03
2018-12-24T08:42:19.639Z,5.87
2018-12-24T08:44:45.571Z,5.90
2018-12-24T08:47:11.599Z,6.00
2018-12-24T08:49:37.826Z,6.00
2018-12-24T08:52:03.814Z,5.98
2018-12-24T08:54:29.765Z,6.02
2018-12-24T08:56:58.502Z,6.09
2018-12-24T08:59:30.105Z,6.09
2018-12-24T09:01:58.058Z,6.02
2018-12-24T09:04:23.953Z,6.10
2018-12-24T09:06:49.922Z,5.94
2018-12-24T09:09:16.210Z,5.97
2018-12-24T09:11:42.156Z,5.94
2018-12-24T09:14:08.112Z,5.90
2018-12-24T09:16:34.095Z,5.91
2018-12-24T09:19:00.341Z,6.00
2018-12-24T09:21:26.671Z,5.99
2018-12-24T09:23:56.206Z,6.00
2018-12-24T09:26:22.121Z,6.11
2018-12-24T09:28:51.405Z,6.10
2018-12-24T09:31:17.656Z,6.12
2018-12-24T09:33:43.908Z,6.09
2018-12-24T09:36:09.893Z,6.15
2018-12-24T09:38:39.164Z,6.08
2018-12-24T09:41:05.171Z,6.04
2018-12-24T09:43:34.452Z,6.04
2018-12-24T09:46:00.511Z,6.16
2018-12-24T09:48:26.759Z,6.20
2018-12-24T09:51:40.742Z,6.35
2018-12-24T09:54:06.545Z,6.27
2018-12-24T09:56:32.647Z,6.32
2018-12-24T09:58:58.741Z,6.33
2018-12-24T10:01:24.623Z,6.27
2018-12-24T10:03:50.800Z,6.29
2018-12-24T10:06:17.033Z,6.28
2018-12-24T10:08:43.321Z,6.15
2018-12-24T10:11:09.437Z,6.28
2018-12-24T10:13:35.275Z,6.34
2018-12-24T10:16:01.135Z,6.24
2018-12-24T10:18:27.257Z,6.21
2018-12-24T10:20:53.067Z,6.23
2018-12-24T10:23:19.200Z,6.24
2018-12-24T10:25:45.046Z,6.32
2018-12-24T10:28:10.910Z,6.41
2018-12-24T10:30:36.751Z,6.44
2018-12-24T10:33:02.895Z,6.39
2018-12-24T10:35:28.737Z,6.39
2018-12-24T10:37:54.567Z,6.48
2018-12-24T10:40:20.684Z,6.46
2018-12-24T10:42:46.793Z,6.52
2018-12-24T10:45:16.488Z,6.69
2018-12-24T10:47:40.364Z,6.58
2018-12-24T10:50:06.190Z,6.46
2018-12-24T10:52:32.360Z,6.39
2018-12-24T10:54:58.197Z,6.48
2018-12-24T10:57:24.033Z,6.49
2018-12-24T10:59:50.194Z,6.53
2018-12-24T11:02:16.001Z,6.40
2018-12-24T11:04:41.841Z,6.43
2018-12-24T11:07:07.635Z,6.37
2018-12-24T11:09:33.943Z,6.45
2018-12-24T11:11:59.894Z,6.34
2018-12-24T11:14:25.710Z,6.28
2018-12-24T11:16:51.830Z,6.22
2018-12-24T11:19:18.098Z,6.29
2018-12-24T11:21:43.935Z,6.39
2018-12-24T11:24:10.044Z,6.45
2018-12-24T11:26:36.169Z,6.40
2018-12-24T11:29:02.370Z,6.20
2018-12-24T11:31:28.516Z,6.11
2018-12-24T11:33:54.481Z,6.27
2018-12-24T11:36:22.284Z,6.43
2018-12-24T11:38:48.165Z,6.48
2018-12-24T11:41:14.261Z,6.45
2018-12-24T11:43:40.277Z,6.58
2018-12-24T11:46:06.371Z,6.70
2018-12-24T11:48:32.233Z,6.99
2018-12-24T11:50:58.219Z,6.94
2018-12-24T11:53:24.061Z,6.93
2018-12-24T11:55:50.176Z,7.06
2018-12-24T11:58:16.830Z,7.14
2018-12-24T12:00:46.092Z,7.05
2018-12-24T12:03:12.927Z,7.01
2018-12-24T12:05:40.256Z,6.95
2018-12-24T12:08:06.094Z,7.00
2018-12-24T12:10:33.811Z,6.86
2018-12-24T12:12:59.623Z,6.95
2018-12-24T12:15:25.485Z,7.04
2018-12-24T12:17:51.403Z,6.91
2018-12-24T12:20:17.234Z,6.90
2018-12-24T12:22:46.043Z,6.93
2018-12-24T12:25:11.876Z,6.69
2018-12-24T12:27:42.504Z,6.64
2018-12-24T12:30:08.734Z,6.56
2018-12-24T12:32:37.817Z,6.72
2018-12-24T12:35:03.912Z,6.88
2018-12-24T12:37:29.765Z,6.86
2018-12-24T12:39:55.621Z,6.88
2018-12-24T12:42:26.415Z,6.76
2018-12-24T12:44:52.251Z,6.69
2018-12-24T12:47:21.311Z,6.72
2018-12-24T12:49:47.462Z,6.73
2018-12-24T12:52:13.294Z,6.71
2018-12-24T12:54:39.131Z,6.75
2018-12-24T12:57:04.941Z,6.74
2018-12-24T12:59:33.791Z,6.73
2018-12-24T13:01:59.602Z,6.82
2018-12-24T13:04:28.524Z,6.69
2018-12-24T13:06:57.289Z,6.73
2018-12-24T13:09:24.325Z,6.77
2018-12-24T13:11:50.198Z,6.83
2018-12-24T13:14:16.261Z,6.87
2018-12-24T13:16:42.132Z,6.83
2018-12-24T13:19:10.927Z,6.83
2018-12-24T13:21:37.130Z,6.80
2018-12-24T13:24:06.248Z,6.87
2018-12-24T13:26:32.385Z,6.96
2018-12-24T13:29:08.271Z,6.98
2018-12-24T13:31:34.082Z,7.10
2018-12-24T13:34:00.198Z,7.12
2018-12-24T13:36:26.301Z,6.92
2018-12-24T13:38:52.427Z,6.76
2018-12-24T13:41:18.247Z,6.64
2018-12-24T13:43:44.390Z,6.37
2018-12-24T13:46:10.398Z,6.28
2018-12-24T13:48:36.246Z,6.09
2018-12-24T13:51:02.087Z,5.83
2018-12-24T13:53:28.266Z,5.90
2018-12-24T13:55:57.254Z,6.10
2018-12-24T13:58:23.328Z,6.24
2018-12-24T14:00:52.304Z,6.27
2018-12-24T14:03:18.355Z,6.40
2018-12-24T14:05:44.449Z,6.55
2018-12-24T14:08:10.653Z,6.55
2018-12-24T14:10:36.587Z,6.54
2018-12-24T14:13:03.176Z,6.25
2018-12-24T14:15:29.437Z,6.28
2018-12-24T14:17:56.778Z,6.48
2018-12-24T14:20:22.582Z,6.53
2018-12-24T14:22:51.032Z,7.15
2018-12-24T14:25:16.882Z,7.44
2018-12-24T14:27:47.341Z,7.20
2018-12-24T14:30:13.459Z,7.07
2018-12-24T14:32:40.904Z,7.04
2018-12-24T14:35:07.004Z,7.01
2018-12-24T14:37:35.318Z,6.96
2018-12-24T14:40:01.271Z,6.89
2018-12-24T14:42:27.097Z,6.83
2018-12-24T14:44:52.937Z,6.62
2018-12-24T14:47:18.776Z,6.40
2018-12-24T14:49:47.397Z,6.06
2018-12-24T14:52:13.249Z,5.84
2018-12-24T14:54:41.744Z,5.67
2018-12-24T14:57:07.556Z,5.62
2018-12-24T14:59:38.207Z,5.79
2018-12-24T15:02:04.069Z,5.88
2018-12-24T15:04:31.311Z,5.89
2018-12-24T15:06:57.181Z,5.98
2018-12-24T15:09:25.753Z,6.06
2018-12-24T15:11:52.285Z,6.16
2018-12-24T15:14:21.984Z,6.32
2018-12-24T15:16:47.837Z,6.33
2018-12-24T15:19:13.635Z,6.37
2018-12-24T15:21:39.480Z,6.28
2018-12-24T15:24:05.585Z,6.25
2018-12-24T15:26:34.541Z,6.26
2018-12-24T15:29:01.462Z,6.24
2018-12-24T15:31:27.340Z,6.10
2018-12-24T15:33:53.515Z,5.97
2018-12-24T15:36:22.447Z,5.86
2018-12-24T15:38:48.252Z,5.60
2018-12-24T15:41:16.291Z,5.68
2018-12-24T15:43:42.368Z,5.57
2018-12-24T15:46:12.956Z,5.60
2018-12-24T15:48:38.940Z,5.64
2018-12-24T15:51:07.747Z,5.60
2018-12-24T15:53:33.559Z,5.47
2018-12-24T15:55:59.415Z,5.38
2018-12-24T15:58:25.297Z,5.31
2018-12-24T16:00:51.105Z,5.35
2018-12-24T16:03:19.704Z,5.32
2018-12-24T16:05:45.512Z,4.11
2018-12-24T16:08:14.140Z,5.35
2018-12-24T16:10:40.020Z,5.31
2018-12-24T16:13:07.107Z,5.27
2018-12-24T16:15:32.953Z,5.24
2018-12-24T16:18:02.396Z,5.21
2018-12-24T16:20:28.535Z,5.24
2018-12-24T16:22:57.597Z,5.07
2018-12-24T16:25:23.701Z,5.01
2018-12-24T16:27:52.559Z,5.05
2018-12-24T16:30:18.419Z,5.04
2018-12-24T16:32:44.276Z,5.06
2018-12-24T16:35:10.119Z,5.00
2018-12-24T16:37:35.917Z,4.95
2018-12-24T16:40:03.391Z,4.88
2018-12-24T16:42:29.218Z,4.85
2018-12-24T16:44:58.061Z,4.91
2018-12-24T16:47:23.913Z,4.94
2018-12-24T16:49:53.048Z,5.04
2018-12-24T16:52:18.865Z,5.10
2018-12-24T16:54:46.974Z,5.16
2018-12-24T16:57:12.809Z,5.15
2018-12-24T16:59:41.750Z,5.19
2018-12-24T17:02:07.583Z,5.16
2018-12-24T17:04:36.598Z,5.13
2018-12-24T17:07:02.702Z,5.18
2018-12-24T17:09:28.549Z,5.36
2018-12-24T17:11:54.648Z,5.30
2018-12-24T17:14:20.747Z,5.09
2018-12-24T17:16:49.628Z,5.18
2018-12-24T17:19:15.733Z,5.13
2018-12-24T17:21:45.180Z,5.12
2018-12-24T17:24:11.010Z,5.12
2018-12-24T17:26:39.825Z,5.14
2018-12-24T17:29:05.676Z,5.15
2018-12-24T17:31:34.824Z,5.12
2018-12-24T17:34:00.646Z,5.16
2018-12-24T17:36:29.290Z,5.03
2018-12-24T17:38:55.132Z,4.62
2018-12-24T17:41:23.806Z,4.50
2018-12-24T17:43:50.022Z,4.33
2018-12-24T17:46:15.858Z,4.41
2018-12-24T17:48:41.675Z,4.40
2018-12-24T17:51:07.906Z,4.26
2018-12-24T17:53:33.735Z,4.34
2018-12-24T17:55:59.591Z,4.34
2018-12-24T17:58:30.239Z,4.31
2018-12-24T18:00:56.461Z,4.34
2018-12-24T18:03:25.127Z,3.98
2018-12-24T18:05:50.952Z,4.32
2018-12-24T18:08:19.852Z,4.29
2018-12-24T18:10:45.668Z,4.27
2018-12-24T18:13:14.541Z,4.10
2018-12-24T18:15:40.397Z,4.13
2018-12-24T18:18:09.322Z,4.18
2018-12-24T18:20:35.189Z,4.21
2018-12-24T18:23:01.260Z,4.14
2018-12-24T18:25:27.120Z,4.09
2018-12-24T18:27:52.941Z,4.09
2018-12-24T18:30:18.781Z,4.07
2018-12-24T18:32:44.617Z,4.07
2018-12-24T18:35:15.542Z,4.11
2018-12-24T18:37:41.375Z,4.11
2018-12-24T18:40:08.270Z,4.15
2018-12-24T18:42:34.092Z,4.19
2018-12-24T18:45:04.585Z,4.29
2018-12-24T18:47:33.289Z,4.29
2018-12-24T18:49:58.136Z,4.38
2018-12-24T18:52:23.981Z,4.31
2018-12-24T18:54:52.567Z,4.31
2018-12-24T18:57:18.429Z,4.32
2018-12-24T18:59:44.231Z,4.37
2018-12-24T19:02:10.080Z,4.29
2018-12-24T19:04:36.427Z,4.39
2018-12-24T19:07:05.064Z,4.35
2018-12-24T19:09:30.942Z,4.28
2018-12-24T19:12:00.599Z,4.25
2018-12-24T19:14:26.437Z,4.24
2018-12-24T19:16:55.520Z,4.19
2018-12-24T19:19:21.340Z,4.18
2018-12-24T19:21:48.817Z,4.15
2018-12-24T19:24:14.631Z,4.17
2018-12-24T19:26:43.900Z,4.12
2018-12-24T19:29:09.992Z,4.05
2018-12-24T19:31:39.115Z,4.01
2018-12-24T19:34:05.206Z,3.91
2018-12-24T19:36:31.355Z,3.95
2018-12-24T19:38:57.188Z,3.94
2018-12-24T19:41:23.333Z,3.85
2018-12-24T19:43:52.211Z,3.84
2018-12-24T19:46:18.064Z,3.78
2018-12-24T19:48:46.728Z,3.74
2018-12-24T19:51:12.544Z,3.68
2018-12-24T19:53:45.931Z,3.53
2018-12-24T19:56:12.225Z,3.51
2018-12-24T19:58:38.323Z,3.48
2018-12-24T20:01:04.166Z,3.49
2018-12-24T20:03:30.006Z,3.39
2018-12-24T20:05:56.121Z,3.29
2018-12-24T20:08:24.818Z,3.21
2018-12-24T20:10:50.644Z,3.15
2018-12-24T20:13:16.460Z,3.18
2018-12-24T20:15:44.251Z,3.20
2018-12-24T20:18:10.076Z,3.10
2018-12-24T20:20:35.922Z,3.06
2018-12-24T20:23:02.045Z,3.10
2018-12-24T20:25:30.649Z,3.04
2018-12-24T20:27:56.485Z,3.03
2018-12-24T20:30:25.515Z,2.98
2018-12-24T20:32:51.406Z,3.05
2018-12-24T20:35:20.056Z,3.02
2018-12-24T20:37:45.870Z,2.67
2018-12-24T20:40:14.672Z,2.78
2018-12-24T20:42:40.836Z,2.53
2018-12-24T20:45:10.045Z,2.59
2018-12-24T20:47:36.172Z,2.69
2018-12-24T20:50:02.022Z,2.78
2018-12-24T20:52:27.845Z,2.77
2018-12-24T20:54:53.654Z,2.80
2018-12-24T20:57:22.648Z,2.84
2018-12-24T20:59:48.796Z,2.76
2018-12-24T21:02:15.944Z,2.61
2018-12-24T21:04:42.484Z,2.60
2018-12-24T21:07:09.963Z,2.68
2018-12-24T21:09:36.116Z,2.62
2018-12-24T21:12:05.620Z,2.56
2018-12-24T21:14:31.845Z,2.57
2018-12-24T21:16:59.541Z,2.64
2018-12-24T21:19:25.352Z,2.68
2018-12-24T21:21:54.405Z,2.66
2018-12-24T21:24:20.225Z,2.65
2018-12-24T21:26:46.349Z,2.66
2018-12-24T21:29:12.530Z,2.62
2018-12-24T21:31:38.353Z,2.63
2018-12-24T21:34:05.697Z,2.59
2018-12-24T21:36:31.533Z,2.44
2018-12-24T21:39:00.374Z,2.45
2018-12-24T21:41:26.217Z,2.46
2018-12-24T21:43:55.208Z,2.46
2018-12-24T21:46:21.036Z,2.45
2018-12-24T21:48:50.063Z,2.41
2018-12-24T21:51:16.269Z,2.49
2018-12-24T21:53:45.094Z,2.50
2018-12-24T21:56:10.933Z,2.50
2018-12-24T21:58:39.834Z,2.43
2018-12-24T22:01:05.929Z,2.36
2018-12-24T22:03:32.032Z,2.38
2018-12-24T22:05:58.410Z,2.25
2018-12-24T22:08:24.246Z,2.25
2018-12-24T22:10:53.278Z,2.03
2018-12-24T22:13:19.137Z,2.23
2018-12-24T22:15:48.075Z,2.29
2018-12-24T22:18:13.956Z,2.27
2018-12-24T22:20:42.563Z,2.17
2018-12-24T22:23:08.390Z,2.22
2018-12-24T22:25:37.011Z,2.17
2018-12-24T22:28:03.097Z,2.15
2018-12-24T22:30:30.254Z,2.03
2018-12-24T22:32:56.348Z,2.02
2018-12-24T22:35:25.507Z,1.91
2018-12-24T22:37:51.336Z,2.01
2018-12-24T22:40:17.211Z,2.05
2018-12-24T22:42:43.206Z,2.02
2018-12-24T22:45:09.293Z,2.07
2018-12-24T22:47:36.539Z,1.64
2018-12-24T22:50:02.666Z,1.97
2018-12-24T22:52:31.643Z,1.86
2018-12-24T22:54:57.722Z,1.85
2018-12-24T22:57:26.603Z,1.83
2018-12-24T22:59:52.449Z,1.86
2018-12-24T23:02:22.077Z,1.93
2018-12-24T23:04:48.033Z,1.99
2018-12-24T23:07:16.603Z,2.00
2018-12-24T23:09:42.453Z,1.93
2018-12-24T23:12:11.612Z,1.91
2018-12-24T23:14:37.449Z,1.94
2018-12-24T23:17:03.253Z,1.94
2018-12-24T23:19:29.099Z,1.85
2018-12-24T23:21:54.901Z,1.84
2018-12-24T23:24:23.552Z,1.80
2018-12-24T23:26:49.489Z,1.72
2018-12-24T23:29:18.703Z,1.79
2018-12-24T23:31:44.566Z,1.74
2018-12-24T23:34:13.578Z,1.75
2018-12-24T23:36:39.417Z,1.70
2018-12-24T23:39:08.211Z,1.72
2018-12-24T23:41:34.031Z,1.54
2018-12-24T23:44:02.666Z,1.35
2018-12-24T23:46:28.798Z,1.35
2018-12-24T23:48:57.800Z,1.44
2018-12-24T23:51:22.834Z,1.49
2018-12-24T23:53:48.979Z,1.49
2018-12-24T23:56:14.812Z,1.51
2018-12-24T23:58:40.655Z,1.54
